Time;durP1;ratioP1;P1;durP2;ratioP2;P2;SDS_P1;SDS_P2;PMS_P1;PMS_P2;Temp;Humidity;BMP_temperature;BMP_pressure;BME280_temperature;BME280_humidity;BME280_pressure;Samples;Min_cycle;Max_cycle;Signal;HPM_P1;HPM_P2
2023/06/09 00:01:13;;;;;;;;;;;;;;;22.74;42.54;101085.91;4187473;28;20020;-66
2023/06/09 00:03:16;;;;;;;;;;;;;;;22.72;42.62;101088.09;4187155;28;19933;-66
2023/06/09 00:05:18;;;;;;;;;;;;;;;22.72;42.54;101090.84;4187370;28;20642;-67
2023/06/09 00:07:22;;;;;;;;;;;;;;;22.73;42.59;101081.47;4187565;28;20487;-67
2023/06/09 00:09:24;;;;;;;;;;;;;;;22.71;42.42;101089.16;4187707;28;20028;-66
2023/06/09 00:11:27;;;;;;;;;;;;;;;22.68;42.63;101082.25;4187801;28;20455;-66
2023/06/09 00:13:29;;;;;;;;;;;;;;;22.64;42.54;101081.91;4187185;28;20474;-67
2023/06/09 00:15:31;;;;;;;;;;;;;;;22.58;42.36;101079.31;4187637;28;20606;-66
2023/06/09 00:17:33;;;;;;;;;;;;;;;22.51;42.77;101082.22;4187957;28;20364;-66
2023/06/09 00:19:35;;;;;;;;;;;;;;;22.49;42.71;101076.13;4186919;28;20347;-67
2023/06/09 00:21:38;;;;;;;;;;;;;;;22.43;42.87;101077.13;4188270;28;20047;-66
2023/06/09 00:23:44;;;;;;;;;;;;;;;22.38;43.09;101077.88;4187778;28;20391;-66
2023/06/09 00:25:46;;;;;;;;;;;;;;;22.37;42.88;101078.13;4187868;28;20015;-66
2023/06/09 00:27:47;;;;;;;;;;;;;;;22.33;42.99;101079.69;4187101;28;20430;-66
2023/06/09 00:29:50;;;;;;;;;;;;;;;22.33;43.06;101075.03;4186986;28;20036;-66
2023/06/09 00:31:51;;;;;;;;;;;;;;;22.35;42.67;101070.13;4187686;28;20018;-66
2023/06/09 00:33:53;;;;;;;;;;;;;;;22.34;42.70;101081.38;4187336;28;20019;-66
2023/06/09 00:35:56;;;;;;;;;;;;;;;22.32;42.81;101073.38;4219335;28;20030;-66
2023/06/09 00:37:58;;;;;;;;;;;;;;;22.27;42.91;101073.22;4169492;28;20028;-66
2023/06/09 00:40:02;;;;;;;;;;;;;;;22.21;42.96;101077.81;4186731;28;20051;-66
2023/06/09 00:42:05;;;;;;;;;;;;;;;22.18;42.81;101074.69;4182534;28;20023;-66
2023/06/09 00:44:07;;;;;;;;;;;;;;;22.15;42.76;101076.06;4187299;28;19935;-65
2023/06/09 00:46:11;;;;;;;;;;;;;;;22.12;43.05;101071.88;4186994;28;20023;-65
2023/06/09 00:48:13;;;;;;;;;;;;;;;22.11;42.78;101069.34;4186743;28;20027;-66
2023/06/09 00:50:16;;;;;;;;;;;;;;;22.10;42.81;101073.19;4185914;28;20023;-66
2023/06/09 00:52:19;;;;;;;;;;;;;;;22.08;42.92;101072.59;4201949;28;20022;-67
2023/06/09 00:54:21;;;;;;;;;;;;;;;22.07;42.70;101071.78;4186939;28;20047;-66
2023/06/09 00:56:25;;;;;;;;;;;;;;;22.08;42.53;101073.44;4186393;28;20004;-67
2023/06/09 00:58:27;;;;;;;;;;;;;;;22.07;42.80;101073.66;4218648;28;19992;-67
2023/06/09 01:00:30;;;;;;;;;;;;;;;22.01;42.87;101081.00;4185111;28;20008;-65
2023/06/09 01:02:31;;;;;;;;;;;;;;;21.94;43.13;101077.56;4186611;28;20018;-65
2023/06/09 01:04:34;;;;;;;;;;;;;;;21.91;42.67;101075.28;4186825;28;19935;-65
2023/06/09 01:06:38;;;;;;;;;;;;;;;21.90;42.47;101073.66;4187267;28;20027;-65
2023/06/09 01:08:43;;;;;;;;;;;;;;;21.87;42.65;101071.38;4218344;28;20022;-66
2023/06/09 01:10:48;;;;;;;;;;;;;;;21.83;42.34;101076.50;4187873;28;20031;-66
2023/06/09 01:12:55;;;;;;;;;;;;;;;21.82;42.41;101074.00;4183888;28;20011;-66
2023/06/09 01:14:57;;;;;;;;;;;;;;;21.75;42.58;101076.91;4201005;28;20146;-66
2023/06/09 01:17:02;;;;;;;;;;;;;;;21.70;42.52;101077.63;4185794;28;20024;-66
2023/06/09 01:19:05;;;;;;;;;;;;;;;21.67;42.49;101082.78;4168610;28;20092;-66
2023/06/09 01:21:12;;;;;;;;;;;;;;;21.64;42.56;101083.28;4187257;28;20020;-66
2023/06/09 01:23:16;;;;;;;;;;;;;;;21.59;42.40;101071.09;4186259;28;20026;-66
2023/06/09 01:25:31;;;;;;;;;;;;;;;21.59;42.25;101082.06;4167473;28;20418;-66
2023/06/09 01:27:36;;;;;;;;;;;;;;;21.59;41.84;101082.06;4186830;28;20015;-66
2023/06/09 01:29:40;;;;;;;;;;;;;;;21.56;42.21;101076.25;4217436;28;20007;-66
2023/06/09 01:31:42;;;;;;;;;;;;;;;21.52;42.37;101078.66;4185963;28;20020;-66
2023/06/09 01:33:44;;;;;;;;;;;;;;;21.46;42.73;101074.09;4185655;28;20466;-66
2023/06/09 01:35:46;;;;;;;;;;;;;;;21.43;42.76;101078.13;4185886;28;20400;-66
2023/06/09 01:37:48;;;;;;;;;;;;;;;21.38;42.53;101078.03;4186779;28;20012;-66
2023/06/09 01:39:50;;;;;;;;;;;;;;;21.38;42.32;101069.78;4184994;28;20012;-66
2023/06/09 01:41:55;;;;;;;;;;;;;;;21.38;42.35;101074.47;4185895;28;20028;-66
2023/06/09 01:43:57;;;;;;;;;;;;;;;21.36;42.26;101073.84;4185870;28;20762;-66
2023/06/09 01:45:59;;;;;;;;;;;;;;;21.36;42.21;101076.59;4185567;28;19929;-66
2023/06/09 01:48:01;;;;;;;;;;;;;;;21.33;42.47;101075.19;4186627;28;20015;-66
2023/06/09 01:50:04;;;;;;;;;;;;;;;21.31;42.42;101076.50;4201220;28;20052;-66
2023/06/09 01:52:08;;;;;;;;;;;;;;;21.28;42.39;101079.72;4185590;28;20047;-66
2023/06/09 01:54:10;;;;;;;;;;;;;;;21.25;42.58;101078.28;4184983;28;20027;-66
2023/06/09 01:56:13;;;;;;;;;;;;;;;21.21;42.51;101088.09;4201533;28;20660;-66
2023/06/09 01:58:18;;;;;;;;;;;;;;;21.17;42.53;101082.22;4184515;28;20020;-66
2023/06/09 02:00:20;;;;;;;;;;;;;;;21.11;42.47;101072.19;4200927;28;20031;-66
2023/06/09 02:02:22;;;;;;;;;;;;;;;21.10;42.63;101075.16;4185139;28;20052;-66
2023/06/09 02:04:26;;;;;;;;;;;;;;;21.06;42.13;101069.34;4168239;28;20016;-66
2023/06/09 02:06:29;;;;;;;;;;;;;;;21.03;42.06;101069.81;4185539;28;20458;-66
2023/06/09 02:08:31;;;;;;;;;;;;;;;21.00;42.08;101070.28;4201075;28;20019;-66
2023/06/09 02:10:33;;;;;;;;;;;;;;;20.96;42.18;101072.69;4200207;28;20028;-66
2023/06/09 02:12:36;;;;;;;;;;;;;;;20.92;42.00;101074.22;4185488;28;20015;-66
2023/06/09 02:14:41;;;;;;;;;;;;;;;20.88;41.90;101071.13;4200777;28;20019;-66
2023/06/09 02:16:43;;;;;;;;;;;;;;;20.84;42.02;101074.56;4169372;28;20020;-66
2023/06/09 02:18:45;;;;;;;;;;;;;;;20.79;42.10;101078.03;4200610;28;19991;-66
2023/06/09 02:20:47;;;;;;;;;;;;;;;20.77;42.07;101080.19;4186056;28;20032;-66
2023/06/09 02:22:49;;;;;;;;;;;;;;;20.76;42.18;101077.69;4183929;28;20020;-66
2023/06/09 02:24:51;;;;;;;;;;;;;;;20.74;42.21;101077.91;4185135;28;20016;-66
2023/06/09 02:26:53;;;;;;;;;;;;;;;20.74;42.32;101082.56;4184567;28;20031;-66
2023/06/09 02:28:55;;;;;;;;;;;;;;;20.76;42.49;101072.19;4186043;28;20355;-66
2023/06/09 02:30:58;;;;;;;;;;;;;;;20.77;42.41;101080.19;4185889;28;20052;-66
2023/06/09 02:33:02;;;;;;;;;;;;;;;20.77;42.37;101079.34;4186133;28;20027;-66
2023/06/09 02:35:04;;;;;;;;;;;;;;;20.75;42.47;101074.06;4169009;28;20035;-66
2023/06/09 02:37:09;;;;;;;;;;;;;;;20.73;42.84;101083.66;4183816;28;20011;-66
2023/06/09 02:39:11;;;;;;;;;;;;;;;20.69;43.15;101081.38;4185635;28;20039;-66
2023/06/09 02:41:13;;;;;;;;;;;;;;;20.66;42.95;101078.28;4168245;28;20024;-66
2023/06/09 02:43:15;;;;;;;;;;;;;;;20.64;43.01;101078.50;4167666;28;20373;-66
2023/06/09 02:45:17;;;;;;;;;;;;;;;20.60;43.52;101076.44;4186044;28;20454;-66
2023/06/09 02:47:21;;;;;;;;;;;;;;;20.60;43.53;101070.94;4167955;28;20422;-66
2023/06/09 02:49:24;;;;;;;;;;;;;;;20.58;43.69;101073.94;4179129;28;20023;-66
2023/06/09 02:51:25;;;;;;;;;;;;;;;20.57;43.98;101080.47;4217861;28;20030;-66
2023/06/09 02:53:28;;;;;;;;;;;;;;;20.57;44.07;101079.66;4167999;28;20028;-66
2023/06/09 02:55:34;;;;;;;;;;;;;;;20.57;44.29;101079.66;4219632;28;20022;-66
2023/06/09 02:57:39;;;;;;;;;;;;;;;20.51;44.40;101076.75;4189441;28;20015;-66
2023/06/09 02:59:42;;;;;;;;;;;;;;;20.49;44.57;101075.34;4220683;28;20134;-66
2023/06/09 03:01:44;;;;;;;;;;;;;;;20.46;44.64;101076.63;4188850;28;20027;-66
2023/06/09 03:03:48;;;;;;;;;;;;;;;20.41;44.65;101071.03;4187399;28;20047;-66
2023/06/09 03:05:52;;;;;;;;;;;;;;;20.38;44.96;101079.72;4187428;28;20015;-66
2023/06/09 03:07:55;;;;;;;;;;;;;;;20.38;44.90;101082.47;4203497;28;19958;-65
2023/06/09 03:09:58;;;;;;;;;;;;;;;20.35;45.09;101086.50;4220187;28;20026;-66
2023/06/09 03:12:00;;;;;;;;;;;;;;;20.35;45.01;101091.16;4187253;28;20011;-65
2023/06/09 03:14:02;;;;;;;;;;;;;;;20.32;45.09;101084.22;4187610;28;20043;-66
2023/06/09 03:16:04;;;;;;;;;;;;;;;20.33;45.18;101091.38;4187864;28;20024;-65
2023/06/09 03:18:07;;;;;;;;;;;;;;;20.31;45.47;101087.19;4204263;28;20023;-66
2023/06/09 03:20:11;;;;;;;;;;;;;;;20.28;45.60;101082.19;4202108;28;20486;-66
2023/06/09 03:22:13;;;;;;;;;;;;;;;20.25;45.54;101088.13;4186969;28;20375;-66
2023/06/09 03:24:17;;;;;;;;;;;;;;;20.22;45.75;101092.19;4186279;28;20022;-66
2023/06/09 03:26:20;;;;;;;;;;;;;;;20.22;45.79;101094.06;4188004;28;20030;-66
2023/06/09 03:28:22;;;;;;;;;;;;;;;20.20;46.03;101093.47;4187079;28;19924;-66
2023/06/09 03:30:24;;;;;;;;;;;;;;;20.22;46.12;101094.06;4187844;28;20024;-66
2023/06/09 03:32:26;;;;;;;;;;;;;;;20.25;46.08;101093.63;4164593;28;20022;-66
2023/06/09 03:34:29;;;;;;;;;;;;;;;20.28;46.31;101094.00;4187567;28;20365;-66
2023/06/09 03:36:35;;;;;;;;;;;;;;;20.29;46.37;101095.66;4186976;28;20024;-66
2023/06/09 03:38:39;;;;;;;;;;;;;;;20.29;46.38;101100.31;4188333;28;20027;-66
2023/06/09 03:40:41;;;;;;;;;;;;;;;20.27;46.65;101097.81;4167970;28;20656;-66
2023/06/09 03:42:43;;;;;;;;;;;;;;;20.26;46.70;101095.28;4218007;28;20465;-66
2023/06/09 03:44:46;;;;;;;;;;;;;;;20.25;46.90;101097.22;4186653;28;20402;-66
2023/06/09 03:46:48;;;;;;;;;;;;;;;20.23;47.00;101102.06;4188402;28;20399;-65
2023/06/09 03:48:51;;;;;;;;;;;;;;;20.25;47.00;101097.22;4184389;28;19925;-66
2023/06/09 03:50:54;;;;;;;;;;;;;;;20.25;47.01;101107.31;4203726;28;20019;-66
2023/06/09 03:52:58;;;;;;;;;;;;;;;20.26;46.99;101107.09;4201766;28;20015;-67
2023/06/09 03:55:01;;;;;;;;;;;;;;;20.26;47.08;101106.28;4185360;28;20040;-66
2023/06/09 03:57:08;;;;;;;;;;;;;;;20.26;47.12;101104.34;4202667;28;20051;-66
2023/06/09 03:59:11;;;;;;;;;;;;;;;20.25;47.26;101102.69;4185545;28;20019;-66
2023/06/09 04:01:13;;;;;;;;;;;;;;;20.22;47.58;101105.03;4220743;28;20019;-66
2023/06/09 04:03:15;;;;;;;;;;;;;;;20.23;47.60;101106.72;4185884;28;20486;-66
2023/06/09 04:05:19;;;;;;;;;;;;;;;20.24;47.86;101108.41;4201855;28;20019;-66
2023/06/09 04:07:22;;;;;;;;;;;;;;;20.25;48.08;101108.19;4185825;28;20019;-66
2023/06/09 04:09:26;;;;;;;;;;;;;;;20.28;48.11;101104.13;4202841;28;20481;-66
2023/06/09 04:11:29;;;;;;;;;;;;;;;20.27;48.09;101106.03;4202701;28;20118;-66
2023/06/09 04:13:31;;;;;;;;;;;;;;;20.26;48.03;101100.78;4216957;28;20396;-66
2023/06/09 04:15:34;;;;;;;;;;;;;;;20.26;48.29;101106.28;4186993;28;20023;-66
2023/06/09 04:17:37;;;;;;;;;;;;;;;20.26;48.04;101098.03;4186867;28;20371;-66
2023/06/09 04:19:41;;;;;;;;;;;;;;;20.28;48.18;101098.63;4186394;28;20035;-66
2023/06/09 04:21:46;;;;;;;;;;;;;;;20.30;48.35;101097.34;4202179;28;20023;-66
2023/06/09 04:23:48;;;;;;;;;;;;;;;20.34;48.21;101092.22;4201254;28;20032;-66
2023/06/09 04:25:53;;;;;;;;;;;;;;;20.36;47.89;101092.84;4218198;28;20026;-66
2023/06/09 04:27:55;;;;;;;;;;;;;;;20.38;47.88;101098.09;4187796;28;20039;-66
2023/06/09 04:29:58;;;;;;;;;;;;;;;20.42;47.87;101091.88;4186097;28;19954;-66
2023/06/09 04:32:00;;;;;;;;;;;;;;;20.43;47.60;101090.81;4200751;28;20054;-66
2023/06/09 04:34:09;;;;;;;;;;;;;;;20.46;47.31;101090.34;4218848;28;20015;-66
2023/06/09 04:36:12;;;;;;;;;;;;;;;20.50;47.39;101085.22;4218886;28;20027;-66
2023/06/09 04:38:14;;;;;;;;;;;;;;;20.52;47.20;101085.84;4186000;28;20014;-66
2023/06/09 04:40:22;;;;;;;;;;;;;;;20.53;46.85;101091.09;4215926;28;20600;-66
2023/06/09 04:42:28;;;;;;;;;;;;;;;20.52;47.11;101089.41;4217344;28;20011;-66
2023/06/09 04:44:32;;;;;;;;;;;;;;;20.55;46.39;101092.75;4185157;28;20055;-65
2023/06/09 04:46:38;;;;;;;;;;;;;;;20.57;45.96;101094.19;4185326;28;20417;-65
2023/06/09 04:48:45;;;;;;;;;;;;;;;20.59;45.78;101091.22;4200097;28;20023;-66
2023/06/09 04:50:47;;;;;;;;;;;;;;;20.61;46.05;101092.66;4185271;28;20352;-64
2023/06/09 04:52:52;;;;;;;;;;;;;;;20.65;45.87;101093.06;4200018;28;20015;-65
2023/06/09 04:54:54;;;;;;;;;;;;;;;20.67;45.71;101094.50;4185547;28;20409;-65
2023/06/09 04:57:01;;;;;;;;;;;;;;;20.71;45.75;101092.09;4184846;28;20055;-65
2023/06/09 04:59:06;;;;;;;;;;;;;;;20.72;45.56;101088.31;4200750;28;20011;-65
2023/06/09 05:01:08;;;;;;;;;;;;;;;20.74;45.18;101093.56;4185205;28;20483;-65
2023/06/09 05:03:13;;;;;;;;;;;;;;;20.74;44.97;101101.78;4199484;28;20015;-66
2023/06/09 05:05:15;;;;;;;;;;;;;;;20.77;44.66;101104.03;4216598;28;20027;-65
2023/06/09 05:07:18;;;;;;;;;;;;;;;20.80;44.50;101098.94;4201840;28;20043;-65
2023/06/09 05:09:20;;;;;;;;;;;;;;;20.84;44.58;101102.03;4169632;28;20387;-66
2023/06/09 05:11:22;;;;;;;;;;;;;;;20.87;44.33;101102.38;4212881;28;20423;-65
2023/06/09 05:13:25;;;;;;;;;;;;;;;20.92;44.32;101100.84;4215863;28;20054;-66
2023/06/09 05:15:28;;;;;;;;;;;;;;;20.95;43.77;101097.63;4181304;28;20019;-66
2023/06/09 05:17:33;;;;;;;;;;;;;;;20.96;43.33;101107.53;4182695;28;20015;-65
2023/06/09 05:19:35;;;;;;;;;;;;;;;20.97;42.46;101101.81;4199793;28;20050;-66
2023/06/09 05:21:38;;;;;;;;;;;;;;;20.98;42.19;101105.38;4185587;28;20023;-66
2023/06/09 05:23:40;;;;;;;;;;;;;;;21.00;41.88;101105.97;4168054;28;20035;-66
2023/06/09 05:25:43;;;;;;;;;;;;;;;21.05;41.65;101100.63;4184953;28;20706;-66
2023/06/09 05:27:45;;;;;;;;;;;;;;;21.11;41.50;101104.31;4164708;28;20016;-66
2023/06/09 05:29:47;;;;;;;;;;;;;;;21.14;41.33;101104.66;4217184;28;20031;-66
2023/06/09 05:31:51;;;;;;;;;;;;;;;21.18;40.82;101111.38;4217435;28;19932;-66
2023/06/09 05:33:55;;;;;;;;;;;;;;;21.22;40.09;101106.22;4185667;28;19999;-66
2023/06/09 05:35:58;;;;;;;;;;;;;;;21.26;39.35;101109.34;4186833;28;20457;-66
2023/06/09 05:38:00;;;;;;;;;;;;;;;21.30;38.92;101110.53;4217699;28;20022;-66
2023/06/09 05:40:05;;;;;;;;;;;;;;;21.36;38.81;101117.81;4217704;28;20098;-65
2023/06/09 05:42:08;;;;;;;;;;;;;;;21.39;38.98;101112.69;4185674;28;20027;-66
2023/06/09 05:44:10;;;;;;;;;;;;;;;21.45;39.09;101110.03;4184179;28;20024;-66
2023/06/09 05:46:12;;;;;;;;;;;;;;;21.49;38.26;101117.59;4183308;28;20063;-66
2023/06/09 05:48:15;;;;;;;;;;;;;;;21.55;37.31;101127.63;4186514;28;20023;-66
2023/06/09 05:50:17;;;;;;;;;;;;;;;21.59;36.51;101130.72;4184650;28;20029;-66
2023/06/09 05:52:19;;;;;;;;;;;;;;;21.65;36.42;101123.44;4185260;28;19968;-66
2023/06/09 05:54:21;;;;;;;;;;;;;;;21.69;35.64;101124.59;4185635;28;20387;-65
2023/06/09 05:56:25;;;;;;;;;;;;;;;21.73;35.40;101125.81;4185379;28;20397;-66
2023/06/09 05:58:33;;;;;;;;;;;;;;;21.76;35.01;101128.06;4186268;28;20335;-66
2023/06/09 06:00:35;;;;;;;;;;;;;;;21.78;34.98;101129.47;4185153;28;20024;-66
2023/06/09 06:02:38;;;;;;;;;;;;;;;21.81;35.04;101130.91;4184942;28;20028;-66
2023/06/09 06:04:41;;;;;;;;;;;;;;;21.83;34.84;101126.00;4184717;28;20060;-66
2023/06/09 06:06:43;;;;;;;;;;;;;;;21.86;34.95;101124.69;4184073;28;20347;-66
2023/06/09 06:08:45;;;;;;;;;;;;;;;21.88;34.89;101122.53;4185370;28;20019;-66
2023/06/09 06:10:47;;;;;;;;;;;;;;;21.91;35.22;101122.03;4183844;28;20008;-66
2023/06/09 06:12:49;;;;;;;;;;;;;;;21.94;34.43;101127.06;4184904;28;19929;-66
2023/06/09 06:14:51;;;;;;;;;;;;;;;21.95;34.07;101126.81;4185128;28;20023;-66
2023/06/09 06:16:53;;;;;;;;;;;;;;;22.00;34.28;101139.84;4185200;28;20051;-66
2023/06/09 06:18:55;;;;;;;;;;;;;;;22.03;34.22;101131.09;4184042;28;20063;-66
2023/06/09 06:20:59;;;;;;;;;;;;;;;22.07;33.84;101132.28;4186263;28;20030;-66
2023/06/09 06:23:02;;;;;;;;;;;;;;;22.12;34.07;101128.81;4184858;28;20028;-66
2023/06/09 06:25:04;;;;;;;;;;;;;;;22.18;33.82;101124.22;4183489;28;20040;-66
2023/06/09 06:27:07;;;;;;;;;;;;;;;22.20;33.74;101128.41;4184201;28;20029;-67
2023/06/09 06:29:09;;;;;;;;;;;;;;;22.23;33.83;101124.34;4184887;28;20035;-67
2023/06/09 06:31:11;;;;;;;;;;;;;;;22.25;33.69;101124.91;4184748;28;20015;-66
2023/06/09 06:33:13;;;;;;;;;;;;;;;22.26;33.94;101129.34;4183448;28;19925;-66
2023/06/09 06:35:21;;;;;;;;;;;;;;;22.30;34.16;101138.81;4181841;28;20026;-66
2023/06/09 06:37:25;;;;;;;;;;;;;;;22.35;34.47;101136.16;4184884;28;20030;-66
2023/06/09 06:39:27;;;;;;;;;;;;;;;22.39;34.24;101139.25;4184517;28;20019;-67
2023/06/09 06:41:28;;;;;;;;;;;;;;;22.42;34.14;101147.84;4185586;28;20011;-66
2023/06/09 06:43:31;;;;;;;;;;;;;;;22.45;34.25;101138.25;4184809;28;20035;-66
2023/06/09 06:45:42;;;;;;;;;;;;;;;22.50;34.45;101141.09;4183459;28;19932;-65
2023/06/09 06:47:45;;;;;;;;;;;;;;;22.54;34.80;101130.44;4185261;28;20011;-65
2023/06/09 06:49:47;;;;;;;;;;;;;;;22.58;34.30;101132.44;4185295;28;20015;-66
2023/06/09 06:51:49;;;;;;;;;;;;;;;22.61;34.44;101134.69;4183626;28;20023;-66
2023/06/09 06:53:52;;;;;;;;;;;;;;;22.65;33.72;101141.38;4183693;28;19924;-66
2023/06/09 06:55:56;;;;;;;;;;;;;;;22.67;33.66;101135.63;4185400;28;20031;-65
2023/06/09 06:57:58;;;;;;;;;;;;;;;22.68;33.39;101137.31;4185072;28;20347;-66
2023/06/09 07:00:00;;;;;;;;;;;;;;;22.72;33.85;101137.63;4185350;28;20410;-66
2023/06/09 07:02:02;;;;;;;;;;;;;;;22.76;34.17;101138.78;4183234;28;20058;-66
2023/06/09 07:04:05;;;;;;;;;;;;;;;22.81;34.03;101136.97;4183985;28;20058;-66
2023/06/09 07:06:08;;;;;;;;;;;;;;;22.84;33.73;101132.91;4185289;28;20497;-66
2023/06/09 07:08:10;;;;;;;;;;;;;;;22.88;33.80;101135.97;4184318;28;20015;-66
2023/06/09 07:10:17;;;;;;;;;;;;;;;22.91;33.82;101136.31;4184117;28;20015;-67
2023/06/09 07:12:19;;;;;;;;;;;;;;;22.94;33.53;101138.56;4216019;28;19948;-65
2023/06/09 07:14:21;;;;;;;;;;;;;;;22.98;33.36;101136.16;4184241;28;19932;-65
2023/06/09 07:16:23;;;;;;;;;;;;;;;23.02;33.60;101140.06;4184564;28;20035;-65
2023/06/09 07:18:25;;;;;;;;;;;;;;;23.06;33.60;101143.16;4184786;28;20019;-66
2023/06/09 07:20:27;;;;;;;;;;;;;;;23.09;33.60;101143.53;4184513;28;20355;-66
2023/06/09 07:22:33;;;;;;;;;;;;;;;23.14;33.74;101140.03;4184685;28;20039;-66
2023/06/09 07:24:35;;;;;;;;;;;;;;;23.17;33.77;101147.78;4185183;28;20028;-66
2023/06/09 07:26:39;;;;;;;;;;;;;;;23.20;33.39;101142.59;4184864;28;20016;-67
2023/06/09 07:28:41;;;;;;;;;;;;;;;23.25;33.38;101141.84;4166968;28;19924;-67
2023/06/09 07:30:43;;;;;;;;;;;;;;;23.28;33.65;101144.09;4184674;28;20441;-66
2023/06/09 07:32:49;;;;;;;;;;;;;;;23.30;32.94;101138.34;4184888;28;20011;-67
2023/06/09 07:34:53;;;;;;;;;;;;;;;23.34;32.82;101145.84;4184592;28;20429;-66
2023/06/09 07:36:54;;;;;;;;;;;;;;;23.37;33.08;101141.75;4184199;28;20029;-67
2023/06/09 07:38:57;;;;;;;;;;;;;;;23.42;33.69;101140.97;4186008;28;20716;-66
2023/06/09 07:40:59;;;;;;;;;;;;;;;23.47;33.39;101138.31;4187984;28;20371;-67
2023/06/09 07:43:02;;;;;;;;;;;;;;;23.51;33.07;101125.66;4187395;28;20023;-67
2023/06/09 07:45:05;;;;;;;;;;;;;;;23.53;33.25;101138.13;4212590;28;20454;-67
2023/06/09 07:47:07;;;;;;;;;;;;;;;23.57;33.26;101133.78;4182617;28;20042;-66
2023/06/09 07:49:09;;;;;;;;;;;;;;;23.60;33.16;101135.16;4187684;28;20368;-66
2023/06/09 07:51:13;;;;;;;;;;;;;;;23.63;33.47;101136.59;4167373;28;19933;-66
2023/06/09 07:53:15;;;;;;;;;;;;;;;23.67;33.74;101138.59;4186612;28;20019;-66
2023/06/09 07:55:17;;;;;;;;;;;;;;;23.68;34.00;101140.25;4185434;28;20701;-66
2023/06/09 07:57:20;;;;;;;;;;;;;;;23.73;34.15;101142.22;4172041;28;19925;-65
2023/06/09 07:59:24;;;;;;;;;;;;;;;23.75;34.04;101142.84;4186672;28;20489;-66
2023/06/09 08:01:26;;;;;;;;;;;;;;;23.79;33.94;101143.97;4173416;28;21924;-66
2023/06/09 08:03:29;;;;;;;;;;;;;;;23.80;33.60;101137.38;4169741;28;19928;-66
2023/06/09 08:05:31;;;;;;;;;;;;;;;23.84;33.54;101135.81;4183425;28;20036;-66
2023/06/09 08:07:33;;;;;;;;;;;;;;;23.87;34.16;101132.53;4176025;28;20031;-66
2023/06/09 08:09:35;;;;;;;;;;;;;;;23.90;33.96;101131.19;4195838;28;20023;-65
2023/06/09 08:11:38;;;;;;;;;;;;;;;23.93;34.12;101133.41;4185092;28;20474;-66
2023/06/09 08:13:40;;;;;;;;;;;;;;;23.96;33.68;101132.91;4182501;28;20566;-66
2023/06/09 08:15:45;;;;;;;;;;;;;;;23.98;33.98;101138.16;4185933;28;19976;-66
2023/06/09 08:17:47;;;;;;;;;;;;;;;24.02;34.35;101140.16;4185856;28;20453;-65
2023/06/09 08:19:49;;;;;;;;;;;;;;;24.05;34.57;101130.53;4185395;28;20024;-64
2023/06/09 08:21:51;;;;;;;;;;;;;;;24.05;34.39;101142.41;4186759;28;20039;-65
2023/06/09 08:23:55;;;;;;;;;;;;;;;24.08;34.35;101130.84;4185324;28;20016;-65
2023/06/09 08:25:57;;;;;;;;;;;;;;;24.12;34.54;101139.44;4187191;28;20011;-65
2023/06/09 08:27:59;;;;;;;;;;;;;;;24.15;34.33;101138.09;4186496;28;20016;-65
2023/06/09 08:30:02;;;;;;;;;;;;;;;24.17;34.35;101133.16;4168858;28;20355;-66
2023/06/09 08:32:06;;;;;;;;;;;;;;;24.19;34.36;101131.81;4185771;28;20011;-65
2023/06/09 08:34:10;;;;;;;;;;;;;;;24.23;34.22;101127.44;4183234;28;20003;-66
2023/06/09 08:36:13;;;;;;;;;;;;;;;24.25;34.52;101133.53;4181108;28;19935;-66
2023/06/09 08:38:15;;;;;;;;;;;;;;;24.27;34.30;101133.28;4182092;28;20035;-66
2023/06/09 08:40:17;;;;;;;;;;;;;;;24.31;34.73;101128.06;4178353;28;20400;-64
2023/06/09 08:42:21;;;;;;;;;;;;;;;24.33;34.47;101129.47;4181091;28;20023;-64
2023/06/09 08:44:23;;;;;;;;;;;;;;;24.37;34.53;101127.84;4185675;28;20040;-65
2023/06/09 08:46:25;;;;;;;;;;;;;;;24.41;34.62;101129.00;4186152;28;20043;-65
2023/06/09 08:48:28;;;;;;;;;;;;;;;24.42;34.22;101133.44;4185132;28;20019;-65
2023/06/09 08:50:31;;;;;;;;;;;;;;;24.44;34.34;101128.47;4185732;28;20015;-65
2023/06/09 08:52:33;;;;;;;;;;;;;;;24.45;34.38;101135.69;4184400;28;20038;-65
2023/06/09 08:54:35;;;;;;;;;;;;;;;24.47;34.63;101130.72;4184289;28;20015;-65
2023/06/09 08:56:37;;;;;;;;;;;;;;;24.49;34.28;101132.41;4185645;28;20687;-66
2023/06/09 08:58:39;;;;;;;;;;;;;;;24.53;34.60;101130.75;4185193;28;20015;-66
2023/06/09 09:00:43;;;;;;;;;;;;;;;24.57;34.32;101126.44;4171249;28;20016;-66
2023/06/09 09:02:46;;;;;;;;;;;;;;;24.59;34.31;101135.28;4185680;28;20039;-65
2023/06/09 09:04:50;;;;;;;;;;;;;;;24.61;34.32;101133.94;4181441;28;20015;-66
2023/06/09 09:06:55;;;;;;;;;;;;;;;24.64;34.47;101135.34;4168872;28;20016;-65
2023/06/09 09:08:57;;;;;;;;;;;;;;;24.66;34.26;101133.13;4185256;28;20063;-66
2023/06/09 09:10:59;;;;;;;;;;;;;;;24.66;34.29;101132.31;4186085;28;20020;-65
2023/06/09 09:13:02;;;;;;;;;;;;;;;24.66;34.11;101127.63;4185696;28;20016;-66
2023/06/09 09:15:06;;;;;;;;;;;;;;;24.71;34.08;101129.59;4183819;28;20020;-66
2023/06/09 09:17:10;;;;;;;;;;;;;;;24.73;34.02;101128.22;4185948;28;20605;-66
2023/06/09 09:19:12;;;;;;;;;;;;;;;24.73;34.01;101124.63;4185538;28;20003;-66
2023/06/09 09:21:26;;;;;;;;;;;;;;;24.75;34.08;101131.56;4186534;28;20007;-66
2023/06/09 09:23:29;;;;;;;;;;;;;;;24.78;34.11;101128.28;4185807;28;20443;-66
2023/06/09 09:25:31;;;;;;;;;;;;;;;24.80;34.15;101130.78;4185828;28;20007;-67
2023/06/09 09:27:33;;;;;;;;;;;;;;;24.81;34.18;101116.72;4186053;28;20023;-66
2023/06/09 09:29:40;;;;;;;;;;;;;;;24.85;33.85;101124.47;4183434;28;20030;-70
2023/06/09 09:31:42;;;;;;;;;;;;;;;24.88;33.99;101118.41;4181008;28;20378;-71
2023/06/09 09:33:47;;;;;;;;;;;;;;;24.86;33.83;101121.44;4184347;28;20023;-69
2023/06/09 09:35:49;;;;;;;;;;;;;;;24.90;34.17;101127.25;4185181;28;20039;-70
2023/06/09 09:37:53;;;;;;;;;;;;;;;24.92;33.96;101127.81;4185900;28;19975;-69
2023/06/09 09:39:55;;;;;;;;;;;;;;;24.95;33.88;101117.09;4217365;28;20019;-70
2023/06/09 09:42:06;;;;;;;;;;;;;;;24.96;34.08;101126.22;4185014;28;20407;-70
2023/06/09 09:44:08;;;;;;;;;;;;;;;24.98;33.95;101118.47;4184946;28;20415;-70
2023/06/09 09:46:10;;;;;;;;;;;;;;;24.98;33.90;101133.16;4184946;28;20031;-71
2023/06/09 09:48:15;;;;;;;;;;;;;;;25.01;34.07;101129.00;4180789;28;21476;-70
2023/06/09 09:50:18;;;;;;;;;;;;;;;25.03;34.21;101121.28;4176110;28;20402;-71
2023/06/09 09:52:26;;;;;;;;;;;;;;;25.04;34.18;101122.94;4184057;28;20650;-72
2023/06/09 09:54:30;;;;;;;;;;;;;;;25.03;34.17;101121.28;4185883;28;20008;-72
2023/06/09 09:56:32;;;;;;;;;;;;;;;25.07;34.13;101124.38;4185557;28;20365;-72
2023/06/09 09:58:35;;;;;;;;;;;;;;;25.07;34.02;101116.91;4185635;28;19932;-69
2023/06/09 10:00:38;;;;;;;;;;;;;;;25.11;34.10;101114.44;4185129;28;20371;-70
2023/06/09 10:02:41;;;;;;;;;;;;;;;25.12;34.13;101122.44;4185336;28;20044;-72
2023/06/09 10:04:44;;;;;;;;;;;;;;;25.15;34.02;101119.16;4216780;28;20018;-65
2023/06/09 10:06:45;;;;;;;;;;;;;;;25.15;33.83;101113.63;4185431;28;20362;-65
2023/06/09 10:08:48;;;;;;;;;;;;;;;25.18;33.63;101121.38;4185154;28;20367;-65
2023/06/09 10:10:51;;;;;;;;;;;;;;;25.19;33.72;101108.41;4186032;28;20591;-65
2023/06/09 10:12:53;;;;;;;;;;;;;;;25.18;33.86;101117.81;4165464;28;20525;-65
2023/06/09 10:14:55;;;;;;;;;;;;;;;25.17;33.70;101119.75;4184204;28;20035;-65
2023/06/09 10:16:58;;;;;;;;;;;;;;;25.18;33.59;101115.03;4185282;28;20023;-65
2023/06/09 10:19:00;;;;;;;;;;;;;;;25.24;33.80;101110.38;4185081;28;19931;-65
2023/06/09 10:21:02;;;;;;;;;;;;;;;25.26;33.58;101113.72;4184147;28;20023;-65
2023/06/09 10:23:04;;;;;;;;;;;;;;;25.26;33.74;101108.19;4183951;28;20011;-65
2023/06/09 10:25:09;;;;;;;;;;;;;;;25.28;33.47;101112.38;4184936;28;20422;-65
2023/06/09 10:27:13;;;;;;;;;;;;;;;25.30;33.38;101107.41;4185402;28;20032;-65
2023/06/09 10:29:15;;;;;;;;;;;;;;;25.33;33.44;101111.59;4183976;28;20334;-66
2023/06/09 10:31:17;;;;;;;;;;;;;;;25.34;33.53;101113.22;4184873;28;20032;-65